首页
METAR-TAF:

METAR-TAF

机场 :

Beaufort, 南卡罗来纳州, 美国

纬度: 32-29-37N, 经度: 080-42-11W, 海拔: 11米

当前天气观测

该预报发布于16分钟前的10:56 UTC
风速10节,风向
温度 8°C
湿度 100%
气压 1019 hPa
能見度: 9.7公里
阴天层高于500英尺
雨, 轻雾

METAR: KNBC 151056Z AUTO 01010KT 6SM RA BR OVC005 08/08 A3009 RMK AO2 SLP190 P0013 T00830078

时间: 06:12 (11:12 UTC)

预报

预报有效从15日的 09点(UTC)到 16日的 09点(UTC)
风速12节,风向
能見度: 6000
阴天层高于500英尺
小雨, 轻雾
从 15日的 1100点(UTC)
风速9节,风向
能見度: 3200
阴天层高于500英尺
雨, 轻雾
短暂存在
从 15日的 11点(UTC)到 15日的 16点(UTC)
风速12节,风向,有时为25节阵风
散云层高于500英尺
从 15日的 1600点(UTC)
风速12节,风向,有时为25节阵风
能見度: 8000
阴天层高于600英尺
小雨, 轻雾
从 15日的 2000点(UTC)
风速10节,风向,有时为20节阵风
能見度: 8000
散云层高于600英尺
阴天层高于800英尺
小雨, 轻雾

TAF: KNBC 1509/1609 36012KT 6000 -RA BR OVC005 QNH3003INS FM151100 01009KT 3200 RA BR OVC005 QNH2992INS TEMPO 1511/1516 01012G25KT SCT005 FM151600 35012G25KT 8000 -RA BR OVC006 QNH2990INS FM152000 36010G20KT 8000 -RA BR SCT006 OVC008 QNH2992INS TM02/1512Z T11/1518Z

超过4000个机场的气象观测和天气预报(METAR&TAF报告)。

可查询的气象台以黄色和红色小点在地图上表示。

将鼠标移到小点上方,可查看气象台名称。

然后点击查看天气观测和预报。

如需切换地图:点击带黑十字的绿色按钮放大地图;点击带横线的绿色按钮缩小地图;或者点击绿色箭头查看邻近地区的地图。


METAR-TAF: